Mechanicsvlle, Virginia
Current Conditions -  °F | °C
As of 3:54 PM on Sunday 23 Nov 2014 (Local Time) from KRIC Reporting Station
Overcast Overcast  
Wind Chill: 56°   Ceiling: 3300
Heat Index: 56°   Visibility: 10mi
Dew Point: 43°   Wind: 3mph
Humidity: 62%   Direction: 130°SE
Pressure: 30.1"   Gusts: NA
Location:  37.634°N, 77.2585°W
Report Text: KRIC 232054Z 13003KT 10SM BKN033 BKN050 OVC120 13/06 A3010 RMK AO2 SLP198 T01330061 56025
Loading
Personal Weather Stations






























Interactive Weather Map New forecast layout! Learn more

10-Day Weather Forecast

Advertisements
Track Severe Weather on mobile